sensor_id;sensor_type;location;lat;lon;timestamp;P1;durP1;ratioP1;P2;durP2;ratioP2
5391;SDS011;2719;53.624;9.786;2022-10-15T00:01:11;9.37;;;6.07;;
5391;SDS011;2719;53.624;9.786;2022-10-15T00:03:39;9.17;;;6.00;;
5391;SDS011;2719;53.624;9.786;2022-10-15T00:06:08;18.97;;;10.07;;
5391;SDS011;2719;53.624;9.786;2022-10-15T00:08:36;12.50;;;8.00;;
5391;SDS011;2719;53.624;9.786;2022-10-15T00:11:04;11.33;;;6.60;;
5391;SDS011;2719;53.624;9.786;2022-10-15T00:13:33;15.23;;;7.50;;
5391;SDS011;2719;53.624;9.786;2022-10-15T00:16:02;10.70;;;6.80;;
5391;SDS011;2719;53.624;9.786;2022-10-15T00:18:29;13.13;;;7.30;;
5391;SDS011;2719;53.624;9.786;2022-10-15T00:20:56;17.20;;;7.30;;
5391;SDS011;2719;53.624;9.786;2022-10-15T00:23:23;11.57;;;7.90;;
5391;SDS011;2719;53.624;9.786;2022-10-15T00:25:50;12.43;;;6.53;;
5391;SDS011;2719;53.624;9.786;2022-10-15T00:28:26;13.83;;;9.13;;
5391;SDS011;2719;53.624;9.786;2022-10-15T00:30:58;10.10;;;6.73;;
5391;SDS011;2719;53.624;9.786;2022-10-15T00:33:26;13.27;;;8.83;;
5391;SDS011;2719;53.624;9.786;2022-10-15T00:36:00;13.73;;;7.77;;
5391;SDS011;2719;53.624;9.786;2022-10-15T00:38:28;14.73;;;8.33;;
5391;SDS011;2719;53.624;9.786;2022-10-15T00:40:55;17.17;;;7.53;;
5391;SDS011;2719;53.624;9.786;2022-10-15T00:43:35;23.17;;;8.07;;
5391;SDS011;2719;53.624;9.786;2022-10-15T00:46:06;17.20;;;7.73;;
5391;SDS011;2719;53.624;9.786;2022-10-15T00:48:42;15.70;;;8.30;;
5391;SDS011;2719;53.624;9.786;2022-10-15T00:51:11;13.73;;;8.77;;
5391;SDS011;2719;53.624;9.786;2022-10-15T00:53:38;15.93;;;8.93;;
5391;SDS011;2719;53.624;9.786;2022-10-15T00:56:05;16.10;;;9.50;;
5391;SDS011;2719;53.624;9.786;2022-10-15T00:58:32;16.77;;;11.27;;
5391;SDS011;2719;53.624;9.786;2022-10-15T01:01:00;15.00;;;9.50;;
5391;SDS011;2719;53.624;9.786;2022-10-15T01:03:26;13.73;;;8.97;;
5391;SDS011;2719;53.624;9.786;2022-10-15T01:05:54;25.73;;;11.40;;
5391;SDS011;2719;53.624;9.786;2022-10-15T01:08:21;22.60;;;9.70;;
5391;SDS011;2719;53.624;9.786;2022-10-15T01:10:49;13.10;;;9.83;;
5391;SDS011;2719;53.624;9.786;2022-10-15T01:13:27;16.87;;;10.23;;
5391;SDS011;2719;53.624;9.786;2022-10-15T01:16:04;21.20;;;11.73;;
5391;SDS011;2719;53.624;9.786;2022-10-15T01:18:38;14.73;;;9.93;;
5391;SDS011;2719;53.624;9.786;2022-10-15T01:21:11;21.43;;;13.50;;
5391;SDS011;2719;53.624;9.786;2022-10-15T01:23:56;21.47;;;11.23;;
5391;SDS011;2719;53.624;9.786;2022-10-15T01:29:47;24.43;;;12.70;;
5391;SDS011;2719;53.624;9.786;2022-10-15T01:32:27;26.40;;;13.37;;
5391;SDS011;2719;53.624;9.786;2022-10-15T01:34:55;19.37;;;13.17;;
5391;SDS011;2719;53.624;9.786;2022-10-15T01:37:35;20.87;;;13.10;;
5391;SDS011;2719;53.624;9.786;2022-10-15T01:40:19;19.90;;;12.60;;
5391;SDS011;2719;53.624;9.786;2022-10-15T01:42:50;17.33;;;12.20;;
5391;SDS011;2719;53.624;9.786;2022-10-15T01:45:23;19.90;;;13.10;;
5391;SDS011;2719;53.624;9.786;2022-10-15T01:47:55;19.27;;;11.83;;
5391;SDS011;2719;53.624;9.786;2022-10-15T01:50:27;17.80;;;11.57;;
5391;SDS011;2719;53.624;9.786;2022-10-15T01:52:56;20.10;;;12.13;;
5391;SDS011;2719;53.624;9.786;2022-10-15T01:55:25;21.73;;;13.33;;
5391;SDS011;2719;53.624;9.786;2022-10-15T01:57:52;25.87;;;14.60;;
5391;SDS011;2719;53.624;9.786;2022-10-15T02:00:22;21.50;;;13.57;;
5391;SDS011;2719;53.624;9.786;2022-10-15T02:02:49;22.70;;;13.77;;
5391;SDS011;2719;53.624;9.786;2022-10-15T02:05:18;21.40;;;13.60;;
5391;SDS011;2719;53.624;9.786;2022-10-15T02:07:52;21.90;;;14.23;;
5391;SDS011;2719;53.624;9.786;2022-10-15T02:10:25;22.70;;;14.23;;
5391;SDS011;2719;53.624;9.786;2022-10-15T02:13:00;21.47;;;12.67;;
5391;SDS011;2719;53.624;9.786;2022-10-15T02:15:33;23.53;;;13.40;;
5391;SDS011;2719;53.624;9.786;2022-10-15T02:18:03;24.00;;;13.80;;
5391;SDS011;2719;53.624;9.786;2022-10-15T02:20:38;22.90;;;14.17;;
5391;SDS011;2719;53.624;9.786;2022-10-15T02:23:11;26.93;;;14.37;;
5391;SDS011;2719;53.624;9.786;2022-10-15T02:25:40;23.03;;;14.80;;
5391;SDS011;2719;53.624;9.786;2022-10-15T02:28:09;25.63;;;15.53;;
5391;SDS011;2719;53.624;9.786;2022-10-15T02:30:39;21.60;;;13.93;;
5391;SDS011;2719;53.624;9.786;2022-10-15T02:33:08;25.47;;;16.13;;
5391;SDS011;2719;53.624;9.786;2022-10-15T02:35:37;24.37;;;14.33;;
5391;SDS011;2719;53.624;9.786;2022-10-15T02:38:07;23.93;;;14.10;;
5391;SDS011;2719;53.624;9.786;2022-10-15T02:40:38;24.80;;;14.23;;
5391;SDS011;2719;53.624;9.786;2022-10-15T02:43:08;23.53;;;12.73;;
5391;SDS011;2719;53.624;9.786;2022-10-15T02:45:36;22.33;;;13.97;;
5391;SDS011;2719;53.624;9.786;2022-10-15T02:48:03;20.60;;;13.10;;
5391;SDS011;2719;53.624;9.786;2022-10-15T02:50:31;26.67;;;13.40;;
5391;SDS011;2719;53.624;9.786;2022-10-15T02:52:59;24.70;;;13.97;;
5391;SDS011;2719;53.624;9.786;2022-10-15T02:55:25;21.07;;;13.30;;
5391;SDS011;2719;53.624;9.786;2022-10-15T02:57:52;20.30;;;11.87;;
5391;SDS011;2719;53.624;9.786;2022-10-15T03:00:19;22.07;;;12.90;;
5391;SDS011;2719;53.624;9.786;2022-10-15T03:02:45;26.00;;;13.00;;
5391;SDS011;2719;53.624;9.786;2022-10-15T03:05:12;18.97;;;11.67;;
5391;SDS011;2719;53.624;9.786;2022-10-15T03:07:39;22.27;;;12.27;;
5391;SDS011;2719;53.624;9.786;2022-10-15T03:10:07;22.70;;;11.57;;
5391;SDS011;2719;53.624;9.786;2022-10-15T03:12:34;23.43;;;13.67;;
5391;SDS011;2719;53.624;9.786;2022-10-15T03:15:01;20.60;;;12.07;;
5391;SDS011;2719;53.624;9.786;2022-10-15T03:17:27;26.47;;;12.73;;
5391;SDS011;2719;53.624;9.786;2022-10-15T03:19:54;22.50;;;12.83;;
5391;SDS011;2719;53.624;9.786;2022-10-15T03:22:21;26.00;;;13.17;;
5391;SDS011;2719;53.624;9.786;2022-10-15T03:24:47;23.63;;;12.37;;
5391;SDS011;2719;53.624;9.786;2022-10-15T03:27:15;20.03;;;10.93;;
5391;SDS011;2719;53.624;9.786;2022-10-15T03:29:42;19.80;;;10.97;;
5391;SDS011;2719;53.624;9.786;2022-10-15T03:32:09;19.70;;;11.03;;
5391;SDS011;2719;53.624;9.786;2022-10-15T03:34:35;18.63;;;10.53;;
5391;SDS011;2719;53.624;9.786;2022-10-15T03:37:02;24.20;;;12.43;;
5391;SDS011;2719;53.624;9.786;2022-10-15T03:39:29;22.47;;;11.70;;
5391;SDS011;2719;53.624;9.786;2022-10-15T03:41:55;19.20;;;10.60;;
5391;SDS011;2719;53.624;9.786;2022-10-15T03:44:24;26.73;;;10.67;;
5391;SDS011;2719;53.624;9.786;2022-10-15T03:46:51;25.40;;;13.20;;
5391;SDS011;2719;53.624;9.786;2022-10-15T03:49:17;27.23;;;13.53;;
5391;SDS011;2719;53.624;9.786;2022-10-15T03:51:44;21.87;;;11.73;;
5391;SDS011;2719;53.624;9.786;2022-10-15T03:54:11;24.03;;;11.57;;
5391;SDS011;2719;53.624;9.786;2022-10-15T03:56:37;22.37;;;11.70;;
5391;SDS011;2719;53.624;9.786;2022-10-15T03:59:04;23.10;;;12.77;;
5391;SDS011;2719;53.624;9.786;2022-10-15T04:01:32;26.60;;;12.57;;
5391;SDS011;2719;53.624;9.786;2022-10-15T04:03:58;26.40;;;13.67;;
5391;SDS011;2719;53.624;9.786;2022-10-15T04:06:25;30.10;;;13.43;;
5391;SDS011;2719;53.624;9.786;2022-10-15T04:08:52;23.73;;;11.83;;
5391;SDS011;2719;53.624;9.786;2022-10-15T04:11:19;30.47;;;14.17;;
5391;SDS011;2719;53.624;9.786;2022-10-15T04:13:46;28.83;;;12.27;;
5391;SDS011;2719;53.624;9.786;2022-10-15T04:16:14;26.73;;;14.40;;
5391;SDS011;2719;53.624;9.786;2022-10-15T04:18:42;27.93;;;13.40;;
5391;SDS011;2719;53.624;9.786;2022-10-15T04:21:08;35.77;;;14.23;;
5391;SDS011;2719;53.624;9.786;2022-10-15T04:23:35;32.43;;;15.10;;
5391;SDS011;2719;53.624;9.786;2022-10-15T04:26:02;29.60;;;13.87;;
5391;SDS011;2719;53.624;9.786;2022-10-15T04:28:28;29.43;;;14.40;;
5391;SDS011;2719;53.624;9.786;2022-10-15T04:30:55;29.40;;;13.53;;
5391;SDS011;2719;53.624;9.786;2022-10-15T04:33:23;39.63;;;17.00;;
5391;SDS011;2719;53.624;9.786;2022-10-15T04:35:57;39.33;;;16.67;;
5391;SDS011;2719;53.624;9.786;2022-10-15T04:38:25;28.40;;;15.43;;
5391;SDS011;2719;53.624;9.786;2022-10-15T04:40:57;31.97;;;15.70;;
5391;SDS011;2719;53.624;9.786;2022-10-15T04:43:25;37.53;;;16.07;;
5391;SDS011;2719;53.624;9.786;2022-10-15T04:45:54;34.10;;;14.83;;
5391;SDS011;2719;53.624;9.786;2022-10-15T04:48:21;36.53;;;16.70;;
5391;SDS011;2719;53.624;9.786;2022-10-15T04:50:48;38.43;;;15.23;;
5391;SDS011;2719;53.624;9.786;2022-10-15T04:53:16;40.20;;;17.07;;
5391;SDS011;2719;53.624;9.786;2022-10-15T04:55:43;37.60;;;16.83;;
5391;SDS011;2719;53.624;9.786;2022-10-15T04:58:09;34.40;;;15.90;;
5391;SDS011;2719;53.624;9.786;2022-10-15T05:00:36;41.47;;;15.07;;
5391;SDS011;2719;53.624;9.786;2022-10-15T05:03:03;47.53;;;19.40;;
5391;SDS011;2719;53.624;9.786;2022-10-15T05:05:30;40.67;;;19.23;;
5391;SDS011;2719;53.624;9.786;2022-10-15T05:07:58;38.03;;;16.40;;
5391;SDS011;2719;53.624;9.786;2022-10-15T05:10:26;41.23;;;17.67;;
5391;SDS011;2719;53.624;9.786;2022-10-15T05:12:54;48.00;;;17.80;;
5391;SDS011;2719;53.624;9.786;2022-10-15T05:15:20;38.87;;;17.43;;
5391;SDS011;2719;53.624;9.786;2022-10-15T05:17:47;40.13;;;17.20;;
5391;SDS011;2719;53.624;9.786;2022-10-15T05:20:14;46.07;;;15.97;;
5391;SDS011;2719;53.624;9.786;2022-10-15T05:22:40;44.13;;;16.43;;
5391;SDS011;2719;53.624;9.786;2022-10-15T05:25:07;34.70;;;16.57;;
5391;SDS011;2719;53.624;9.786;2022-10-15T05:27:36;33.57;;;16.50;;
5391;SDS011;2719;53.624;9.786;2022-10-15T05:30:03;42.73;;;17.67;;
5391;SDS011;2719;53.624;9.786;2022-10-15T05:32:30;49.33;;;18.00;;
5391;SDS011;2719;53.624;9.786;2022-10-15T05:34:56;39.30;;;17.47;;
5391;SDS011;2719;53.624;9.786;2022-10-15T05:37:23;39.63;;;18.40;;
5391;SDS011;2719;53.624;9.786;2022-10-15T05:39:50;42.10;;;18.53;;
5391;SDS011;2719;53.624;9.786;2022-10-15T05:42:16;43.73;;;19.70;;
5391;SDS011;2719;53.624;9.786;2022-10-15T05:44:44;34.87;;;18.13;;
5391;SDS011;2719;53.624;9.786;2022-10-15T05:47:11;53.07;;;19.80;;
5391;SDS011;2719;53.624;9.786;2022-10-15T05:49:37;31.60;;;16.27;;
5391;SDS011;2719;53.624;9.786;2022-10-15T05:52:04;38.70;;;17.77;;
5391;SDS011;2719;53.624;9.786;2022-10-15T05:54:31;39.80;;;17.20;;
5391;SDS011;2719;53.624;9.786;2022-10-15T05:56:57;43.77;;;18.30;;
5391;SDS011;2719;53.624;9.786;2022-10-15T05:59:24;40.20;;;17.00;;
5391;SDS011;2719;53.624;9.786;2022-10-15T06:01:52;43.23;;;17.80;;
5391;SDS011;2719;53.624;9.786;2022-10-15T06:04:19;39.13;;;20.00;;
5391;SDS011;2719;53.624;9.786;2022-10-15T06:06:45;41.43;;;18.70;;
5391;SDS011;2719;53.624;9.786;2022-10-15T06:09:12;48.40;;;17.07;;
5391;SDS011;2719;53.624;9.786;2022-10-15T06:11:39;37.60;;;18.53;;
5391;SDS011;2719;53.624;9.786;2022-10-15T06:14:06;35.53;;;17.60;;
5391;SDS011;2719;53.624;9.786;2022-10-15T06:16:32;33.43;;;16.90;;
5391;SDS011;2719;53.624;9.786;2022-10-15T06:19:00;34.43;;;17.07;;
5391;SDS011;2719;53.624;9.786;2022-10-15T06:21:27;44.97;;;20.50;;
5391;SDS011;2719;53.624;9.786;2022-10-15T06:23:54;39.77;;;19.13;;
5391;SDS011;2719;53.624;9.786;2022-10-15T06:26:21;45.53;;;20.13;;
5391;SDS011;2719;53.624;9.786;2022-10-15T06:28:47;43.40;;;19.33;;
5391;SDS011;2719;53.624;9.786;2022-10-15T06:31:14;41.07;;;17.97;;
5391;SDS011;2719;53.624;9.786;2022-10-15T06:33:41;43.37;;;20.30;;
5391;SDS011;2719;53.624;9.786;2022-10-15T06:36:09;43.60;;;18.67;;
5391;SDS011;2719;53.624;9.786;2022-10-15T06:38:37;47.17;;;20.83;;
5391;SDS011;2719;53.624;9.786;2022-10-15T06:41:04;49.03;;;21.53;;
5391;SDS011;2719;53.624;9.786;2022-10-15T06:43:31;42.90;;;21.63;;
5391;SDS011;2719;53.624;9.786;2022-10-15T06:45:58;47.60;;;21.50;;
5391;SDS011;2719;53.624;9.786;2022-10-15T06:48:25;47.57;;;21.47;;
5391;SDS011;2719;53.624;9.786;2022-10-15T06:50:52;56.57;;;23.80;;
5391;SDS011;2719;53.624;9.786;2022-10-15T06:53:20;47.70;;;20.97;;
5391;SDS011;2719;53.624;9.786;2022-10-15T06:55:47;52.10;;;21.23;;
5391;SDS011;2719;53.624;9.786;2022-10-15T06:58:13;51.17;;;22.57;;
5391;SDS011;2719;53.624;9.786;2022-10-15T07:00:40;53.17;;;23.67;;
5391;SDS011;2719;53.624;9.786;2022-10-15T07:03:07;51.80;;;22.17;;
5391;SDS011;2719;53.624;9.786;2022-10-15T07:05:33;50.30;;;21.03;;
5391;SDS011;2719;53.624;9.786;2022-10-15T07:08:00;52.50;;;21.93;;
5391;SDS011;2719;53.624;9.786;2022-10-15T07:10:28;53.47;;;22.10;;
5391;SDS011;2719;53.624;9.786;2022-10-15T07:12:55;44.90;;;20.10;;
5391;SDS011;2719;53.624;9.786;2022-10-15T07:15:24;52.83;;;21.50;;
5391;SDS011;2719;53.624;9.786;2022-10-15T07:17:51;46.80;;;20.47;;
5391;SDS011;2719;53.624;9.786;2022-10-15T07:20:20;40.73;;;20.23;;
5391;SDS011;2719;53.624;9.786;2022-10-15T07:22:47;52.00;;;23.83;;
5391;SDS011;2719;53.624;9.786;2022-10-15T07:25:14;48.40;;;20.27;;
5391;SDS011;2719;53.624;9.786;2022-10-15T07:27:42;52.93;;;22.73;;
5391;SDS011;2719;53.624;9.786;2022-10-15T07:30:09;43.97;;;20.00;;
5391;SDS011;2719;53.624;9.786;2022-10-15T07:32:36;45.50;;;19.70;;
5391;SDS011;2719;53.624;9.786;2022-10-15T07:35:03;48.43;;;20.17;;
5391;SDS011;2719;53.624;9.786;2022-10-15T07:37:30;50.87;;;20.70;;
5391;SDS011;2719;53.624;9.786;2022-10-15T07:39:57;45.50;;;20.57;;
5391;SDS011;2719;53.624;9.786;2022-10-15T07:42:23;57.07;;;20.00;;
5391;SDS011;2719;53.624;9.786;2022-10-15T07:44:52;49.03;;;19.60;;
5391;SDS011;2719;53.624;9.786;2022-10-15T07:47:18;51.23;;;22.40;;
5391;SDS011;2719;53.624;9.786;2022-10-15T07:49:45;51.10;;;21.10;;
5391;SDS011;2719;53.624;9.786;2022-10-15T07:52:12;57.20;;;21.60;;
5391;SDS011;2719;53.624;9.786;2022-10-15T07:54:38;45.00;;;19.87;;
5391;SDS011;2719;53.624;9.786;2022-10-15T07:57:05;43.80;;;19.73;;
5391;SDS011;2719;53.624;9.786;2022-10-15T07:59:32;49.07;;;21.50;;
5391;SDS011;2719;53.624;9.786;2022-10-15T08:02:00;39.27;;;17.93;;
5391;SDS011;2719;53.624;9.786;2022-10-15T08:04:27;40.97;;;17.60;;
5391;SDS011;2719;53.624;9.786;2022-10-15T08:06:54;38.50;;;18.57;;
5391;SDS011;2719;53.624;9.786;2022-10-15T08:09:20;47.97;;;19.07;;
5391;SDS011;2719;53.624;9.786;2022-10-15T08:11:47;38.00;;;17.10;;
5391;SDS011;2719;53.624;9.786;2022-10-15T08:14:14;37.83;;;18.20;;
5391;SDS011;2719;53.624;9.786;2022-10-15T08:16:41;40.73;;;19.77;;
5391;SDS011;2719;53.624;9.786;2022-10-15T08:19:09;39.63;;;17.50;;
5391;SDS011;2719;53.624;9.786;2022-10-15T08:21:36;34.70;;;16.67;;
5391;SDS011;2719;53.624;9.786;2022-10-15T08:24:03;35.40;;;16.13;;
5391;SDS011;2719;53.624;9.786;2022-10-15T08:26:30;32.17;;;14.23;;
5391;SDS011;2719;53.624;9.786;2022-10-15T08:28:57;44.43;;;17.70;;
5391;SDS011;2719;53.624;9.786;2022-10-15T08:31:23;38.87;;;17.23;;
5391;SDS011;2719;53.624;9.786;2022-10-15T08:33:50;29.00;;;14.33;;
5391;SDS011;2719;53.624;9.786;2022-10-15T08:36:18;35.80;;;16.33;;
5391;SDS011;2719;53.624;9.786;2022-10-15T08:38:45;33.10;;;15.53;;
5391;SDS011;2719;53.624;9.786;2022-10-15T08:41:18;42.20;;;15.40;;
5391;SDS011;2719;53.624;9.786;2022-10-15T08:43:49;40.13;;;15.27;;
5391;SDS011;2719;53.624;9.786;2022-10-15T08:46:17;36.07;;;15.27;;
5391;SDS011;2719;53.624;9.786;2022-10-15T08:48:47;38.23;;;14.43;;
5391;SDS011;2719;53.624;9.786;2022-10-15T08:51:18;30.37;;;14.17;;
5391;SDS011;2719;53.624;9.786;2022-10-15T08:53:48;32.03;;;14.83;;
5391;SDS011;2719;53.624;9.786;2022-10-15T08:56:19;30.50;;;14.10;;
5391;SDS011;2719;53.624;9.786;2022-10-15T08:58:50;38.07;;;15.93;;
5391;SDS011;2719;53.624;9.786;2022-10-15T09:01:23;42.20;;;16.47;;
5391;SDS011;2719;53.624;9.786;2022-10-15T09:03:57;41.40;;;14.57;;
5391;SDS011;2719;53.624;9.786;2022-10-15T09:06:32;31.40;;;13.87;;
5391;SDS011;2719;53.624;9.786;2022-10-15T09:09:02;35.87;;;14.47;;
5391;SDS011;2719;53.624;9.786;2022-10-15T09:11:36;35.00;;;15.70;;
5391;SDS011;2719;53.624;9.786;2022-10-15T09:14:13;36.60;;;16.03;;
5391;SDS011;2719;53.624;9.786;2022-10-15T09:16:42;34.27;;;14.83;;
5391;SDS011;2719;53.624;9.786;2022-10-15T09:19:12;37.77;;;14.87;;
5391;SDS011;2719;53.624;9.786;2022-10-15T09:21:42;30.33;;;13.20;;
5391;SDS011;2719;53.624;9.786;2022-10-15T09:24:11;30.83;;;13.50;;
5391;SDS011;2719;53.624;9.786;2022-10-15T09:26:46;29.43;;;14.13;;
5391;SDS011;2719;53.624;9.786;2022-10-15T09:29:20;31.17;;;15.37;;
5391;SDS011;2719;53.624;9.786;2022-10-15T09:31:53;30.20;;;14.30;;
5391;SDS011;2719;53.624;9.786;2022-10-15T09:34:24;40.00;;;13.80;;
5391;SDS011;2719;53.624;9.786;2022-10-15T09:36:57;35.20;;;14.50;;
5391;SDS011;2719;53.624;9.786;2022-10-15T09:39:32;41.83;;;13.70;;
5391;SDS011;2719;53.624;9.786;2022-10-15T09:42:08;26.97;;;12.70;;
5391;SDS011;2719;53.624;9.786;2022-10-15T09:44:42;32.37;;;13.60;;
5391;SDS011;2719;53.624;9.786;2022-10-15T09:47:15;30.57;;;12.90;;
5391;SDS011;2719;53.624;9.786;2022-10-15T09:49:47;38.47;;;14.77;;
5391;SDS011;2719;53.624;9.786;2022-10-15T09:52:17;29.37;;;10.33;;
5391;SDS011;2719;53.624;9.786;2022-10-15T09:54:52;28.60;;;12.30;;
5391;SDS011;2719;53.624;9.786;2022-10-15T09:57:25;25.10;;;12.50;;
5391;SDS011;2719;53.624;9.786;2022-10-15T09:59:53;26.43;;;12.03;;
5391;SDS011;2719;53.624;9.786;2022-10-15T10:02:21;24.07;;;11.60;;
5391;SDS011;2719;53.624;9.786;2022-10-15T10:04:49;25.60;;;12.57;;
5391;SDS011;2719;53.624;9.786;2022-10-15T10:07:30;31.00;;;12.90;;
5391;SDS011;2719;53.624;9.786;2022-10-15T10:09:59;29.57;;;12.30;;
5391;SDS011;2719;53.624;9.786;2022-10-15T10:12:30;29.63;;;13.10;;
5391;SDS011;2719;53.624;9.786;2022-10-15T10:14:59;25.97;;;11.47;;
5391;SDS011;2719;53.624;9.786;2022-10-15T10:17:30;26.27;;;10.93;;
5391;SDS011;2719;53.624;9.786;2022-10-15T10:20:03;26.73;;;13.77;;
5391;SDS011;2719;53.624;9.786;2022-10-15T10:22:42;27.20;;;10.50;;
5391;SDS011;2719;53.624;9.786;2022-10-15T10:27:58;20.70;;;9.90;;
5391;SDS011;2719;53.624;9.786;2022-10-15T10:30:32;26.87;;;10.10;;
5391;SDS011;2719;53.624;9.786;2022-10-15T10:33:01;21.70;;;9.77;;
5391;SDS011;2719;53.624;9.786;2022-10-15T10:35:32;20.00;;;8.97;;
5391;SDS011;2719;53.624;9.786;2022-10-15T10:38:17;19.20;;;8.93;;
5391;SDS011;2719;53.624;9.786;2022-10-15T10:40:48;23.20;;;10.23;;
5391;SDS011;2719;53.624;9.786;2022-10-15T10:43:18;21.00;;;8.67;;
5391;SDS011;2719;53.624;9.786;2022-10-15T10:45:52;22.43;;;10.53;;
5391;SDS011;2719;53.624;9.786;2022-10-15T10:48:20;21.27;;;10.90;;
5391;SDS011;2719;53.624;9.786;2022-10-15T10:50:49;23.30;;;11.10;;
5391;SDS011;2719;53.624;9.786;2022-10-15T10:53:29;22.07;;;11.23;;
5391;SDS011;2719;53.624;9.786;2022-10-15T10:55:56;24.30;;;10.10;;
5391;SDS011;2719;53.624;9.786;2022-10-15T10:58:23;21.57;;;9.90;;
5391;SDS011;2719;53.624;9.786;2022-10-15T11:00:58;23.73;;;11.03;;
5391;SDS011;2719;53.624;9.786;2022-10-15T11:03:28;21.53;;;10.87;;
5391;SDS011;2719;53.624;9.786;2022-10-15T11:06:00;19.00;;;9.70;;
5391;SDS011;2719;53.624;9.786;2022-10-15T11:08:37;19.43;;;8.90;;
5391;SDS011;2719;53.624;9.786;2022-10-15T11:11:14;27.40;;;9.80;;
5391;SDS011;2719;53.624;9.786;2022-10-15T11:13:49;19.73;;;8.33;;
5391;SDS011;2719;53.624;9.786;2022-10-15T11:16:23;17.40;;;7.57;;
5391;SDS011;2719;53.624;9.786;2022-10-15T11:19:01;16.43;;;7.63;;
5391;SDS011;2719;53.624;9.786;2022-10-15T11:21:40;19.90;;;7.90;;
5391;SDS011;2719;53.624;9.786;2022-10-15T11:24:15;16.70;;;7.70;;
5391;SDS011;2719;53.624;9.786;2022-10-15T11:26:54;13.70;;;6.93;;
5391;SDS011;2719;53.624;9.786;2022-10-15T11:29:31;12.90;;;6.23;;
5391;SDS011;2719;53.624;9.786;2022-10-15T11:32:07;11.10;;;5.47;;
5391;SDS011;2719;53.624;9.786;2022-10-15T11:34:49;12.47;;;5.90;;
5391;SDS011;2719;53.624;9.786;2022-10-15T11:37:31;14.60;;;5.37;;
5391;SDS011;2719;53.624;9.786;2022-10-15T11:40:11;10.07;;;4.93;;
5391;SDS011;2719;53.624;9.786;2022-10-15T11:42:45;13.10;;;4.60;;
5391;SDS011;2719;53.624;9.786;2022-10-15T11:48:16;12.80;;;5.30;;
5391;SDS011;2719;53.624;9.786;2022-10-15T11:50:49;13.10;;;6.00;;
5391;SDS011;2719;53.624;9.786;2022-10-15T11:53:30;13.83;;;6.00;;
5391;SDS011;2719;53.624;9.786;2022-10-15T11:56:18;12.80;;;4.30;;
5391;SDS011;2719;53.624;9.786;2022-10-15T11:58:52;11.13;;;4.10;;
5391;SDS011;2719;53.624;9.786;2022-10-15T12:01:23;9.53;;;4.97;;
5391;SDS011;2719;53.624;9.786;2022-10-15T12:03:55;15.33;;;5.70;;
5391;SDS011;2719;53.624;9.786;2022-10-15T12:06:26;10.90;;;3.60;;
5391;SDS011;2719;53.624;9.786;2022-10-15T12:08:57;8.67;;;4.60;;
5391;SDS011;2719;53.624;9.786;2022-10-15T12:11:29;11.00;;;4.40;;
5391;SDS011;2719;53.624;9.786;2022-10-15T12:14:10;16.00;;;4.60;;
5391;SDS011;2719;53.624;9.786;2022-10-15T12:16:44;6.47;;;3.57;;
5391;SDS011;2719;53.624;9.786;2022-10-15T12:19:19;6.27;;;3.60;;
5391;SDS011;2719;53.624;9.786;2022-10-15T12:21:59;5.40;;;2.70;;
5391;SDS011;2719;53.624;9.786;2022-10-15T12:24:53;9.57;;;3.33;;
5391;SDS011;2719;53.624;9.786;2022-10-15T12:27:23;5.77;;;2.90;;
5391;SDS011;2719;53.624;9.786;2022-10-15T12:30:11;5.07;;;2.40;;
5391;SDS011;2719;53.624;9.786;2022-10-15T12:32:46;6.70;;;3.50;;
5391;SDS011;2719;53.624;9.786;2022-10-15T12:35:20;10.50;;;3.00;;
5391;SDS011;2719;53.624;9.786;2022-10-15T12:38:07;11.20;;;3.30;;
5391;SDS011;2719;53.624;9.786;2022-10-15T12:40:36;9.73;;;3.60;;
5391;SDS011;2719;53.624;9.786;2022-10-15T12:43:10;6.13;;;3.10;;
5391;SDS011;2719;53.624;9.786;2022-10-15T12:45:40;5.00;;;3.10;;
5391;SDS011;2719;53.624;9.786;2022-10-15T12:48:18;4.70;;;2.93;;
5391;SDS011;2719;53.624;9.786;2022-10-15T12:50:47;6.80;;;3.40;;
5391;SDS011;2719;53.624;9.786;2022-10-15T12:53:27;6.10;;;3.07;;
5391;SDS011;2719;53.624;9.786;2022-10-15T12:56:10;9.17;;;3.90;;
5391;SDS011;2719;53.624;9.786;2022-10-15T12:58:40;7.50;;;3.63;;
5391;SDS011;2719;53.624;9.786;2022-10-15T13:03:52;14.63;;;4.73;;
5391;SDS011;2719;53.624;9.786;2022-10-15T13:06:26;6.37;;;3.00;;
5391;SDS011;2719;53.624;9.786;2022-10-15T13:09:04;6.17;;;3.40;;
5391;SDS011;2719;53.624;9.786;2022-10-15T13:11:44;7.23;;;3.80;;
5391;SDS011;2719;53.624;9.786;2022-10-15T13:14:17;7.57;;;4.20;;
5391;SDS011;2719;53.624;9.786;2022-10-15T13:16:52;8.67;;;4.30;;
5391;SDS011;2719;53.624;9.786;2022-10-15T13:19:20;8.77;;;3.20;;
5391;SDS011;2719;53.624;9.786;2022-10-15T13:21:49;9.37;;;4.37;;
5391;SDS011;2719;53.624;9.786;2022-10-15T13:24:18;12.53;;;3.77;;
5391;SDS011;2719;53.624;9.786;2022-10-15T13:26:46;10.13;;;3.53;;
5391;SDS011;2719;53.624;9.786;2022-10-15T13:29:14;8.83;;;4.10;;
5391;SDS011;2719;53.624;9.786;2022-10-15T13:31:42;6.00;;;3.17;;
5391;SDS011;2719;53.624;9.786;2022-10-15T13:34:13;9.23;;;4.20;;
5391;SDS011;2719;53.624;9.786;2022-10-15T13:36:46;5.63;;;2.93;;
5391;SDS011;2719;53.624;9.786;2022-10-15T13:39:21;7.47;;;3.67;;
5391;SDS011;2719;53.624;9.786;2022-10-15T13:41:51;12.13;;;4.07;;
5391;SDS011;2719;53.624;9.786;2022-10-15T13:44:28;8.97;;;3.83;;
5391;SDS011;2719;53.624;9.786;2022-10-15T13:46:56;5.93;;;3.10;;
5391;SDS011;2719;53.624;9.786;2022-10-15T13:49:23;4.20;;;2.40;;
5391;SDS011;2719;53.624;9.786;2022-10-15T13:51:50;6.83;;;4.73;;
5391;SDS011;2719;53.624;9.786;2022-10-15T13:54:19;9.80;;;3.10;;
5391;SDS011;2719;53.624;9.786;2022-10-15T13:56:49;5.37;;;3.30;;
5391;SDS011;2719;53.624;9.786;2022-10-15T13:59:19;7.83;;;3.10;;
5391;SDS011;2719;53.624;9.786;2022-10-15T14:01:47;7.97;;;3.13;;
5391;SDS011;2719;53.624;9.786;2022-10-15T14:04:18;8.20;;;3.37;;
5391;SDS011;2719;53.624;9.786;2022-10-15T14:06:51;5.40;;;3.53;;
5391;SDS011;2719;53.624;9.786;2022-10-15T14:09:24;8.13;;;4.70;;
5391;SDS011;2719;53.624;9.786;2022-10-15T14:11:55;10.10;;;4.97;;
5391;SDS011;2719;53.624;9.786;2022-10-15T14:14:26;5.17;;;3.60;;
5391;SDS011;2719;53.624;9.786;2022-10-15T14:16:54;17.33;;;4.83;;
5391;SDS011;2719;53.624;9.786;2022-10-15T14:19:24;12.73;;;6.20;;
5391;SDS011;2719;53.624;9.786;2022-10-15T14:21:54;13.27;;;6.37;;
5391;SDS011;2719;53.624;9.786;2022-10-15T14:24:21;10.77;;;6.77;;
5391;SDS011;2719;53.624;9.786;2022-10-15T14:26:52;14.30;;;7.20;;
5391;SDS011;2719;53.624;9.786;2022-10-15T14:29:21;11.27;;;6.43;;
5391;SDS011;2719;53.624;9.786;2022-10-15T14:31:52;11.63;;;6.70;;
5391;SDS011;2719;53.624;9.786;2022-10-15T14:34:27;12.30;;;7.23;;
5391;SDS011;2719;53.624;9.786;2022-10-15T14:36:56;14.80;;;7.47;;
5391;SDS011;2719;53.624;9.786;2022-10-15T14:39:28;13.90;;;8.17;;
5391;SDS011;2719;53.624;9.786;2022-10-15T14:41:57;12.10;;;7.13;;
5391;SDS011;2719;53.624;9.786;2022-10-15T14:44:25;13.40;;;7.00;;
5391;SDS011;2719;53.624;9.786;2022-10-15T14:47:04;12.10;;;6.90;;
5391;SDS011;2719;53.624;9.786;2022-10-15T14:49:36;12.87;;;7.43;;
5391;SDS011;2719;53.624;9.786;2022-10-15T14:52:06;11.80;;;6.60;;
5391;SDS011;2719;53.624;9.786;2022-10-15T14:54:37;23.70;;;8.00;;
5391;SDS011;2719;53.624;9.786;2022-10-15T14:57:11;12.67;;;7.07;;
5391;SDS011;2719;53.624;9.786;2022-10-15T14:59:42;12.00;;;6.97;;
5391;SDS011;2719;53.624;9.786;2022-10-15T15:02:12;11.67;;;7.30;;
5391;SDS011;2719;53.624;9.786;2022-10-15T15:04:43;13.47;;;7.53;;
5391;SDS011;2719;53.624;9.786;2022-10-15T15:07:17;13.43;;;6.77;;
5391;SDS011;2719;53.624;9.786;2022-10-15T15:09:46;17.80;;;7.90;;
5391;SDS011;2719;53.624;9.786;2022-10-15T15:12:15;20.33;;;7.80;;
5391;SDS011;2719;53.624;9.786;2022-10-15T15:14:44;13.87;;;8.40;;
5391;SDS011;2719;53.624;9.786;2022-10-15T15:17:16;14.77;;;8.40;;
5391;SDS011;2719;53.624;9.786;2022-10-15T15:19:47;20.43;;;9.20;;
5391;SDS011;2719;53.624;9.786;2022-10-15T15:22:15;15.57;;;8.57;;
5391;SDS011;2719;53.624;9.786;2022-10-15T15:24:46;14.93;;;9.27;;